sensor_id;sensor_type;location;lat;lon;timestamp;temperature;humidity
74081;SHT31;62438;52.228;6.864;2023-02-01T00:01:54;4.61;85.89
74081;SHT31;62438;52.228;6.864;2023-02-01T00:03:54;4.61;85.91
74081;SHT31;62438;52.228;6.864;2023-02-01T00:05:56;4.63;85.60
74081;SHT31;62438;52.228;6.864;2023-02-01T00:07:57;4.65;85.59
74081;SHT31;62438;52.228;6.864;2023-02-01T00:09:57;4.58;86.21
74081;SHT31;62438;52.228;6.864;2023-02-01T00:11:58;4.52;86.87
74081;SHT31;62438;52.228;6.864;2023-02-01T00:14:02;4.55;86.16
74081;SHT31;62438;52.228;6.864;2023-02-01T00:18:09;4.55;86.29
74081;SHT31;62438;52.228;6.864;2023-02-01T00:20:10;4.49;86.94
74081;SHT31;62438;52.228;6.864;2023-02-01T00:22:10;4.48;86.94
74081;SHT31;62438;52.228;6.864;2023-02-01T00:24:11;4.48;87.29
74081;SHT31;62438;52.228;6.864;2023-02-01T00:26:17;4.44;87.75
74081;SHT31;62438;52.228;6.864;2023-02-01T00:28:18;4.42;87.81
74081;SHT31;62438;52.228;6.864;2023-02-01T00:30:19;4.42;87.74
74081;SHT31;62438;52.228;6.864;2023-02-01T00:32:19;4.40;87.82
74081;SHT31;62438;52.228;6.864;2023-02-01T00:34:20;4.41;88.17
74081;SHT31;62438;52.228;6.864;2023-02-01T00:36:20;4.44;87.98
74081;SHT31;62438;52.228;6.864;2023-02-01T00:38:21;4.48;87.78
74081;SHT31;62438;52.228;6.864;2023-02-01T00:40:21;4.44;87.84
74081;SHT31;62438;52.228;6.864;2023-02-01T00:42:21;4.44;88.28
74081;SHT31;62438;52.228;6.864;2023-02-01T00:44:22;4.52;87.77
74081;SHT31;62438;52.228;6.864;2023-02-01T00:46:22;4.42;88.57
74081;SHT31;62438;52.228;6.864;2023-02-01T00:48:24;4.59;87.82
74081;SHT31;62438;52.228;6.864;2023-02-01T00:50:24;4.63;87.69
74081;SHT31;62438;52.228;6.864;2023-02-01T00:52:25;4.61;87.77
74081;SHT31;62438;52.228;6.864;2023-02-01T00:54:25;4.58;87.80
74081;SHT31;62438;52.228;6.864;2023-02-01T00:56:25;4.62;87.77
74081;SHT31;62438;52.228;6.864;2023-02-01T00:58:27;4.68;87.66
74081;SHT31;62438;52.228;6.864;2023-02-01T01:00:28;4.73;87.16
74081;SHT31;62438;52.228;6.864;2023-02-01T01:02:28;4.76;87.09
74081;SHT31;62438;52.228;6.864;2023-02-01T01:04:29;4.77;87.27
74081;SHT31;62438;52.228;6.864;2023-02-01T01:06:31;4.80;87.19
74081;SHT31;62438;52.228;6.864;2023-02-01T01:08:32;4.86;86.94
74081;SHT31;62438;52.228;6.864;2023-02-01T01:10:33;4.82;87.35
74081;SHT31;62438;52.228;6.864;2023-02-01T01:12:33;4.77;87.52
74081;SHT31;62438;52.228;6.864;2023-02-01T01:14:34;4.84;87.04
74081;SHT31;62438;52.228;6.864;2023-02-01T01:16:34;4.84;87.27
74081;SHT31;62438;52.228;6.864;2023-02-01T01:18:35;4.93;87.24
74081;SHT31;62438;52.228;6.864;2023-02-01T01:20:38;4.96;86.90
74081;SHT31;62438;52.228;6.864;2023-02-01T01:22:39;4.90;87.23
74081;SHT31;62438;52.228;6.864;2023-02-01T01:24:40;4.90;87.17
74081;SHT31;62438;52.228;6.864;2023-02-01T01:26:41;4.86;87.44
74081;SHT31;62438;52.228;6.864;2023-02-01T01:28:41;4.96;87.04
74081;SHT31;62438;52.228;6.864;2023-02-01T01:30:41;4.90;87.01
74081;SHT31;62438;52.228;6.864;2023-02-01T01:32:42;4.99;86.73
74081;SHT31;62438;52.228;6.864;2023-02-01T01:34:42;4.97;86.81
74081;SHT31;62438;52.228;6.864;2023-02-01T01:36:42;5.04;86.42
74081;SHT31;62438;52.228;6.864;2023-02-01T01:38:43;5.07;86.25
74081;SHT31;62438;52.228;6.864;2023-02-01T01:40:47;5.13;85.85
74081;SHT31;62438;52.228;6.864;2023-02-01T01:42:47;5.11;86.19
74081;SHT31;62438;52.228;6.864;2023-02-01T01:45:07;5.10;86.25
74081;SHT31;62438;52.228;6.864;2023-02-01T01:47:08;5.04;86.24
74081;SHT31;62438;52.228;6.864;2023-02-01T01:49:20;5.00;86.72
74081;SHT31;62438;52.228;6.864;2023-02-01T01:51:23;5.06;86.57
74081;SHT31;62438;52.228;6.864;2023-02-01T01:53:28;5.07;86.47
74081;SHT31;62438;52.228;6.864;2023-02-01T01:55:32;5.06;86.51
74081;SHT31;62438;52.228;6.864;2023-02-01T01:57:38;5.06;86.32
74081;SHT31;62438;52.228;6.864;2023-02-01T01:59:41;5.04;86.20
74081;SHT31;62438;52.228;6.864;2023-02-01T02:01:43;5.03;86.52
74081;SHT31;62438;52.228;6.864;2023-02-01T02:03:45;5.03;86.59
74081;SHT31;62438;52.228;6.864;2023-02-01T02:05:48;4.94;86.95
74081;SHT31;62438;52.228;6.864;2023-02-01T02:07:50;4.97;87.05
74081;SHT31;62438;52.228;6.864;2023-02-01T02:09:52;4.89;87.22
74081;SHT31;62438;52.228;6.864;2023-02-01T02:11:52;5.03;86.54
74081;SHT31;62438;52.228;6.864;2023-02-01T02:13:55;5.01;86.71
74081;SHT31;62438;52.228;6.864;2023-02-01T02:18:54;5.04;86.35
74081;SHT31;62438;52.228;6.864;2023-02-01T02:26:24;5.14;86.09
74081;SHT31;62438;52.228;6.864;2023-02-01T02:36:01;5.06;86.57
74081;SHT31;62438;52.228;6.864;2023-02-01T02:40:35;4.99;86.57
74081;SHT31;62438;52.228;6.864;2023-02-01T02:42:58;5.01;86.52
74081;SHT31;62438;52.228;6.864;2023-02-01T02:50:35;5.06;86.60
74081;SHT31;62438;52.228;6.864;2023-02-01T02:53:01;5.09;86.21
74081;SHT31;62438;52.228;6.864;2023-02-01T02:55:21;5.03;86.70
74081;SHT31;62438;52.228;6.864;2023-02-01T02:57:26;4.93;86.84
74081;SHT31;62438;52.228;6.864;2023-02-01T02:59:47;5.06;86.42
74081;SHT31;62438;52.228;6.864;2023-02-01T03:02:06;5.14;85.68
74081;SHT31;62438;52.228;6.864;2023-02-01T03:04:26;5.06;86.34
74081;SHT31;62438;52.228;6.864;2023-02-01T03:06:26;5.17;85.94
74081;SHT31;62438;52.228;6.864;2023-02-01T03:08:29;5.11;86.22
74081;SHT31;62438;52.228;6.864;2023-02-01T03:12:37;5.11;86.37
74081;SHT31;62438;52.228;6.864;2023-02-01T03:15:01;5.19;86.22
74081;SHT31;62438;52.228;6.864;2023-02-01T03:17:08;5.13;87.02
74081;SHT31;62438;52.228;6.864;2023-02-01T03:19:18;5.09;86.99
74081;SHT31;62438;52.228;6.864;2023-02-01T03:23:28;5.13;87.37
74081;SHT31;62438;52.228;6.864;2023-02-01T03:25:32;5.14;87.06
74081;SHT31;62438;52.228;6.864;2023-02-01T03:27:37;5.13;87.53
74081;SHT31;62438;52.228;6.864;2023-02-01T03:29:47;5.17;86.97
74081;SHT31;62438;52.228;6.864;2023-02-01T03:31:49;5.10;87.53
74081;SHT31;62438;52.228;6.864;2023-02-01T03:33:50;5.11;87.40
74081;SHT31;62438;52.228;6.864;2023-02-01T03:35:55;5.14;87.36
74081;SHT31;62438;52.228;6.864;2023-02-01T03:38:09;5.10;87.57
74081;SHT31;62438;52.228;6.864;2023-02-01T03:40:13;5.07;88.01
74081;SHT31;62438;52.228;6.864;2023-02-01T03:42:28;5.07;87.77
74081;SHT31;62438;52.228;6.864;2023-02-01T03:44:58;5.03;88.11
74081;SHT31;62438;52.228;6.864;2023-02-01T03:47:10;5.00;88.17
74081;SHT31;62438;52.228;6.864;2023-02-01T03:49:17;5.00;88.18
74081;SHT31;62438;52.228;6.864;2023-02-01T03:51:20;5.06;87.87
74081;SHT31;62438;52.228;6.864;2023-02-01T03:53:22;5.09;87.60
74081;SHT31;62438;52.228;6.864;2023-02-01T03:55:24;5.14;87.28
74081;SHT31;62438;52.228;6.864;2023-02-01T03:57:31;5.13;87.50
74081;SHT31;62438;52.228;6.864;2023-02-01T03:59:32;5.19;87.25
74081;SHT31;62438;52.228;6.864;2023-02-01T04:01:33;5.16;87.45
74081;SHT31;62438;52.228;6.864;2023-02-01T04:03:33;5.20;87.14
74081;SHT31;62438;52.228;6.864;2023-02-01T04:05:34;5.21;87.19
74081;SHT31;62438;52.228;6.864;2023-02-01T04:07:34;5.23;87.19
74081;SHT31;62438;52.228;6.864;2023-02-01T04:09:35;5.30;86.80
74081;SHT31;62438;52.228;6.864;2023-02-01T04:11:35;5.32;86.56
74081;SHT31;62438;52.228;6.864;2023-02-01T04:13:35;5.38;86.44
74081;SHT31;62438;52.228;6.864;2023-02-01T04:15:36;5.38;86.85
74081;SHT31;62438;52.228;6.864;2023-02-01T04:17:36;5.38;87.13
74081;SHT31;62438;52.228;6.864;2023-02-01T04:19:37;5.38;87.05
74081;SHT31;62438;52.228;6.864;2023-02-01T04:21:37;5.40;87.36
74081;SHT31;62438;52.228;6.864;2023-02-01T04:23:37;5.41;87.00
74081;SHT31;62438;52.228;6.864;2023-02-01T04:25:38;5.35;87.41
74081;SHT31;62438;52.228;6.864;2023-02-01T04:27:38;5.47;86.65
74081;SHT31;62438;52.228;6.864;2023-02-01T04:29:39;5.45;87.14
74081;SHT31;62438;52.228;6.864;2023-02-01T04:31:39;5.51;86.62
74081;SHT31;62438;52.228;6.864;2023-02-01T04:33:40;5.49;86.75
74081;SHT31;62438;52.228;6.864;2023-02-01T04:35:40;5.56;86.24
74081;SHT31;62438;52.228;6.864;2023-02-01T04:37:41;5.59;86.42
74081;SHT31;62438;52.228;6.864;2023-02-01T04:39:41;5.61;85.98
74081;SHT31;62438;52.228;6.864;2023-02-01T04:41:42;5.59;86.33
74081;SHT31;62438;52.228;6.864;2023-02-01T04:43:42;5.59;86.56
74081;SHT31;62438;52.228;6.864;2023-02-01T04:45:48;5.56;86.47
74081;SHT31;62438;52.228;6.864;2023-02-01T04:47:48;5.61;86.34
74081;SHT31;62438;52.228;6.864;2023-02-01T04:49:49;5.59;86.64
74081;SHT31;62438;52.228;6.864;2023-02-01T04:51:49;5.62;86.27
74081;SHT31;62438;52.228;6.864;2023-02-01T04:53:50;5.82;85.08
74081;SHT31;62438;52.228;6.864;2023-02-01T04:55:50;5.88;84.73
74081;SHT31;62438;52.228;6.864;2023-02-01T04:57:50;5.93;84.57
74081;SHT31;62438;52.228;6.864;2023-02-01T04:59:51;5.96;84.62
74081;SHT31;62438;52.228;6.864;2023-02-01T05:01:51;5.90;84.70
74081;SHT31;62438;52.228;6.864;2023-02-01T05:03:52;5.92;85.47
74081;SHT31;62438;52.228;6.864;2023-02-01T05:05:52;5.96;84.97
74081;SHT31;62438;52.228;6.864;2023-02-01T05:07:54;5.96;85.21
74081;SHT31;62438;52.228;6.864;2023-02-01T05:09:54;5.99;85.21
74081;SHT31;62438;52.228;6.864;2023-02-01T05:11:54;6.05;84.98
74081;SHT31;62438;52.228;6.864;2023-02-01T05:14:13;6.09;84.65
74081;SHT31;62438;52.228;6.864;2023-02-01T05:16:14;6.16;84.39
74081;SHT31;62438;52.228;6.864;2023-02-01T05:18:14;6.14;84.42
74081;SHT31;62438;52.228;6.864;2023-02-01T05:20:14;6.17;84.03
74081;SHT31;62438;52.228;6.864;2023-02-01T05:22:15;6.10;84.85
74081;SHT31;62438;52.228;6.864;2023-02-01T05:24:15;6.07;84.69
74081;SHT31;62438;52.228;6.864;2023-02-01T05:26:21;6.13;84.42
74081;SHT31;62438;52.228;6.864;2023-02-01T05:28:22;6.14;84.08
74081;SHT31;62438;52.228;6.864;2023-02-01T05:30:22;6.23;83.67
74081;SHT31;62438;52.228;6.864;2023-02-01T05:32:23;6.17;84.36
74081;SHT31;62438;52.228;6.864;2023-02-01T05:34:23;6.27;83.26
74081;SHT31;62438;52.228;6.864;2023-02-01T05:36:23;6.36;82.88
74081;SHT31;62438;52.228;6.864;2023-02-01T05:38:24;6.31;83.22
74081;SHT31;62438;52.228;6.864;2023-02-01T05:40:24;6.26;83.63
74081;SHT31;62438;52.228;6.864;2023-02-01T05:42:25;6.26;83.45
74081;SHT31;62438;52.228;6.864;2023-02-01T05:44:25;6.23;83.57
74081;SHT31;62438;52.228;6.864;2023-02-01T05:46:26;6.19;83.49
74081;SHT31;62438;52.228;6.864;2023-02-01T05:48:26;6.19;83.65
74081;SHT31;62438;52.228;6.864;2023-02-01T05:50:26;6.24;83.32
74081;SHT31;62438;52.228;6.864;2023-02-01T05:52:27;6.19;83.67
74081;SHT31;62438;52.228;6.864;2023-02-01T05:54:27;6.31;82.73
74081;SHT31;62438;52.228;6.864;2023-02-01T05:56:28;6.31;82.93
74081;SHT31;62438;52.228;6.864;2023-02-01T05:58:29;6.27;83.16
74081;SHT31;62438;52.228;6.864;2023-02-01T06:00:29;6.27;83.18
74081;SHT31;62438;52.228;6.864;2023-02-01T06:02:30;6.33;82.77
74081;SHT31;62438;52.228;6.864;2023-02-01T06:04:30;6.30;83.02
74081;SHT31;62438;52.228;6.864;2023-02-01T06:06:30;6.27;83.15
74081;SHT31;62438;52.228;6.864;2023-02-01T06:08:31;6.34;82.81
74081;SHT31;62438;52.228;6.864;2023-02-01T06:10:31;6.36;82.85
74081;SHT31;62438;52.228;6.864;2023-02-01T06:12:32;6.31;82.86
74081;SHT31;62438;52.228;6.864;2023-02-01T06:14:32;6.30;82.91
74081;SHT31;62438;52.228;6.864;2023-02-01T06:16:33;6.31;82.90
74081;SHT31;62438;52.228;6.864;2023-02-01T06:18:34;6.26;83.65
74081;SHT31;62438;52.228;6.864;2023-02-01T06:20:35;6.24;83.49
74081;SHT31;62438;52.228;6.864;2023-02-01T06:22:39;6.24;83.66
74081;SHT31;62438;52.228;6.864;2023-02-01T06:24:40;6.23;83.38
74081;SHT31;62438;52.228;6.864;2023-02-01T06:26:41;6.28;82.98
74081;SHT31;62438;52.228;6.864;2023-02-01T06:28:41;6.28;83.37
74081;SHT31;62438;52.228;6.864;2023-02-01T06:30:41;6.28;83.16
74081;SHT31;62438;52.228;6.864;2023-02-01T06:32:50;6.26;83.31
74081;SHT31;62438;52.228;6.864;2023-02-01T06:34:53;6.28;83.09
74081;SHT31;62438;52.228;6.864;2023-02-01T06:36:54;6.23;83.37
74081;SHT31;62438;52.228;6.864;2023-02-01T06:38:57;6.30;83.32
74081;SHT31;62438;52.228;6.864;2023-02-01T06:40:59;6.23;83.58
74081;SHT31;62438;52.228;6.864;2023-02-01T06:42:59;6.27;83.15
74081;SHT31;62438;52.228;6.864;2023-02-01T06:45:00;6.31;83.22
74081;SHT31;62438;52.228;6.864;2023-02-01T06:47:00;6.21;83.90
74081;SHT31;62438;52.228;6.864;2023-02-01T06:49:01;6.23;83.43
74081;SHT31;62438;52.228;6.864;2023-02-01T06:51:01;6.27;83.30
74081;SHT31;62438;52.228;6.864;2023-02-01T06:53:01;6.31;83.30
74081;SHT31;62438;52.228;6.864;2023-02-01T06:55:02;6.26;83.58
74081;SHT31;62438;52.228;6.864;2023-02-01T06:57:03;6.21;83.87
74081;SHT31;62438;52.228;6.864;2023-02-01T06:59:04;6.23;84.08
74081;SHT31;62438;52.228;6.864;2023-02-01T07:01:06;6.26;83.79
74081;SHT31;62438;52.228;6.864;2023-02-01T07:03:07;6.27;83.53
74081;SHT31;62438;52.228;6.864;2023-02-01T07:05:08;6.28;83.46
74081;SHT31;62438;52.228;6.864;2023-02-01T07:07:08;6.33;83.54
74081;SHT31;62438;52.228;6.864;2023-02-01T07:09:09;6.31;83.62
74081;SHT31;62438;52.228;6.864;2023-02-01T07:11:11;6.33;83.46
74081;SHT31;62438;52.228;6.864;2023-02-01T07:13:12;6.38;83.24
74081;SHT31;62438;52.228;6.864;2023-02-01T07:15:12;6.37;83.27
74081;SHT31;62438;52.228;6.864;2023-02-01T07:17:13;6.34;83.54
74081;SHT31;62438;52.228;6.864;2023-02-01T07:19:13;6.40;83.38
74081;SHT31;62438;52.228;6.864;2023-02-01T07:21:14;6.31;83.63
74081;SHT31;62438;52.228;6.864;2023-02-01T07:23:14;6.34;83.48
74081;SHT31;62438;52.228;6.864;2023-02-01T07:25:15;6.31;84.22
74081;SHT31;62438;52.228;6.864;2023-02-01T07:27:15;6.28;84.21
74081;SHT31;62438;52.228;6.864;2023-02-01T07:29:15;6.28;84.22
74081;SHT31;62438;52.228;6.864;2023-02-01T07:31:17;6.33;84.10
74081;SHT31;62438;52.228;6.864;2023-02-01T07:33:20;6.28;84.13
74081;SHT31;62438;52.228;6.864;2023-02-01T07:35:21;6.28;84.14
74081;SHT31;62438;52.228;6.864;2023-02-01T07:37:22;6.28;84.02
74081;SHT31;62438;52.228;6.864;2023-02-01T07:39:24;6.31;83.86
74081;SHT31;62438;52.228;6.864;2023-02-01T07:41:24;6.36;83.47
74081;SHT31;62438;52.228;6.864;2023-02-01T07:43:25;6.45;82.58
74081;SHT31;62438;52.228;6.864;2023-02-01T07:45:26;6.45;82.93
74081;SHT31;62438;52.228;6.864;2023-02-01T07:47:27;6.42;82.59
74081;SHT31;62438;52.228;6.864;2023-02-01T07:49:27;6.44;82.58
74081;SHT31;62438;52.228;6.864;2023-02-01T07:51:27;6.41;83.27
74081;SHT31;62438;52.228;6.864;2023-02-01T07:53:29;6.38;83.19
74081;SHT31;62438;52.228;6.864;2023-02-01T07:55:30;6.45;82.84
74081;SHT31;62438;52.228;6.864;2023-02-01T07:57:31;6.45;82.56
74081;SHT31;62438;52.228;6.864;2023-02-01T07:59:31;6.44;82.87
74081;SHT31;62438;52.228;6.864;2023-02-01T08:01:32;6.40;82.91
74081;SHT31;62438;52.228;6.864;2023-02-01T08:03:32;6.44;83.07
74081;SHT31;62438;52.228;6.864;2023-02-01T08:05:33;6.37;83.57
74081;SHT31;62438;52.228;6.864;2023-02-01T08:07:33;6.41;83.07
74081;SHT31;62438;52.228;6.864;2023-02-01T08:09:34;6.45;82.58
74081;SHT31;62438;52.228;6.864;2023-02-01T08:11:35;6.52;81.97
74081;SHT31;62438;52.228;6.864;2023-02-01T08:13:37;6.49;82.16
74081;SHT31;62438;52.228;6.864;2023-02-01T08:15:38;6.52;82.52
74081;SHT31;62438;52.228;6.864;2023-02-01T08:17:38;6.58;81.85
74081;SHT31;62438;52.228;6.864;2023-02-01T08:19:39;6.58;82.26
74081;SHT31;62438;52.228;6.864;2023-02-01T08:21:39;6.58;82.30
74081;SHT31;62438;52.228;6.864;2023-02-01T08:23:41;6.52;83.21
74081;SHT31;62438;52.228;6.864;2023-02-01T08:25:41;6.51;82.88
74081;SHT31;62438;52.228;6.864;2023-02-01T08:27:42;6.44;83.71
74081;SHT31;62438;52.228;6.864;2023-02-01T08:29:42;6.48;83.15
74081;SHT31;62438;52.228;6.864;2023-02-01T08:31:43;6.44;83.36
74081;SHT31;62438;52.228;6.864;2023-02-01T08:33:48;6.48;83.03
74081;SHT31;62438;52.228;6.864;2023-02-01T08:35:49;6.47;82.92
74081;SHT31;62438;52.228;6.864;2023-02-01T08:37:50;6.57;83.39
74081;SHT31;62438;52.228;6.864;2023-02-01T08:39:51;6.57;82.53
74081;SHT31;62438;52.228;6.864;2023-02-01T08:41:51;6.58;83.13
74081;SHT31;62438;52.228;6.864;2023-02-01T08:44:10;6.61;82.46
74081;SHT31;62438;52.228;6.864;2023-02-01T08:46:11;6.58;82.73
74081;SHT31;62438;52.228;6.864;2023-02-01T08:48:12;6.65;82.94
74081;SHT31;62438;52.228;6.864;2023-02-01T08:50:13;6.72;82.32
74081;SHT31;62438;52.228;6.864;2023-02-01T08:52:14;6.77;82.05
74081;SHT31;62438;52.228;6.864;2023-02-01T08:54:15;6.77;82.25
74081;SHT31;62438;52.228;6.864;2023-02-01T08:56:17;6.78;81.78
74081;SHT31;62438;52.228;6.864;2023-02-01T08:58:18;6.69;82.61
74081;SHT31;62438;52.228;6.864;2023-02-01T09:00:19;6.75;82.01
74081;SHT31;62438;52.228;6.864;2023-02-01T09:02:20;6.75;82.01
74081;SHT31;62438;52.228;6.864;2023-02-01T09:04:20;6.75;81.99
74081;SHT31;62438;52.228;6.864;2023-02-01T09:06:21;6.75;82.34
74081;SHT31;62438;52.228;6.864;2023-02-01T09:08:21;6.75;82.27
74081;SHT31;62438;52.228;6.864;2023-02-01T09:10:22;6.78;82.22
74081;SHT31;62438;52.228;6.864;2023-02-01T09:12:23;6.82;82.30
74081;SHT31;62438;52.228;6.864;2023-02-01T09:14:24;6.77;82.29
74081;SHT31;62438;52.228;6.864;2023-02-01T09:16:24;6.79;82.78
74081;SHT31;62438;52.228;6.864;2023-02-01T09:18:26;6.82;82.77
74081;SHT31;62438;52.228;6.864;2023-02-01T09:20:26;6.79;82.90
74081;SHT31;62438;52.228;6.864;2023-02-01T09:22:27;6.81;83.54
74081;SHT31;62438;52.228;6.864;2023-02-01T09:24:27;6.77;82.87
74081;SHT31;62438;52.228;6.864;2023-02-01T09:26:28;6.84;82.82
74081;SHT31;62438;52.228;6.864;2023-02-01T09:28:28;6.86;82.63
74081;SHT31;62438;52.228;6.864;2023-02-01T09:30:29;6.92;82.31
74081;SHT31;62438;52.228;6.864;2023-02-01T09:32:30;6.91;82.39
74081;SHT31;62438;52.228;6.864;2023-02-01T09:34:30;6.91;82.53
74081;SHT31;62438;52.228;6.864;2023-02-01T09:36:31;6.92;83.01
74081;SHT31;62438;52.228;6.864;2023-02-01T09:38:32;6.92;82.60
74081;SHT31;62438;52.228;6.864;2023-02-01T09:40:34;6.89;82.68
74081;SHT31;62438;52.228;6.864;2023-02-01T09:43:29;6.93;83.03
74081;SHT31;62438;52.228;6.864;2023-02-01T09:45:44;6.98;82.93
74081;SHT31;62438;52.228;6.864;2023-02-01T09:47:51;7.00;82.47
74081;SHT31;62438;52.228;6.864;2023-02-01T09:50:03;7.09;82.39
74081;SHT31;62438;52.228;6.864;2023-02-01T09:52:06;7.09;82.72
74081;SHT31;62438;52.228;6.864;2023-02-01T09:54:16;6.99;82.96
74081;SHT31;62438;52.228;6.864;2023-02-01T09:56:21;7.03;82.60
74081;SHT31;62438;52.228;6.864;2023-02-01T09:58:36;6.99;82.53
74081;SHT31;62438;52.228;6.864;2023-02-01T10:00:39;7.00;82.90
74081;SHT31;62438;52.228;6.864;2023-02-01T10:02:40;7.05;82.70
74081;SHT31;62438;52.228;6.864;2023-02-01T10:04:42;7.06;82.25
74081;SHT31;62438;52.228;6.864;2023-02-01T10:06:57;7.06;82.32
74081;SHT31;62438;52.228;6.864;2023-02-01T10:13:58;7.17;81.90
74081;SHT31;62438;52.228;6.864;2023-02-01T10:16:15;7.26;81.46
74081;SHT31;62438;52.228;6.864;2023-02-01T10:25:26;7.24;81.75
74081;SHT31;62438;52.228;6.864;2023-02-01T10:27:37;7.19;81.55
74081;SHT31;62438;52.228;6.864;2023-02-01T10:29:41;7.20;81.59
74081;SHT31;62438;52.228;6.864;2023-02-01T10:31:42;7.22;81.20
74081;SHT31;62438;52.228;6.864;2023-02-01T10:33:47;7.16;81.81
74081;SHT31;62438;52.228;6.864;2023-02-01T10:35:54;7.10;82.61
74081;SHT31;62438;52.228;6.864;2023-02-01T10:38:00;6.93;84.81
74081;SHT31;62438;52.228;6.864;2023-02-01T10:42:12;6.58;86.64
74081;SHT31;62438;52.228;6.864;2023-02-01T10:44:28;6.42;88.26
74081;SHT31;62438;52.228;6.864;2023-02-01T10:46:30;6.26;90.34
74081;SHT31;62438;52.228;6.864;2023-02-01T10:48:31;6.24;89.84
74081;SHT31;62438;52.228;6.864;2023-02-01T10:50:34;6.16;90.55
74081;SHT31;62438;52.228;6.864;2023-02-01T10:52:46;6.13;91.98
74081;SHT31;62438;52.228;6.864;2023-02-01T10:54:48;6.14;90.37
74081;SHT31;62438;52.228;6.864;2023-02-01T10:56:49;6.10;91.26
74081;SHT31;62438;52.228;6.864;2023-02-01T10:58:49;6.07;91.65
74081;SHT31;62438;52.228;6.864;2023-02-01T11:01:06;6.05;91.57
74081;SHT31;62438;52.228;6.864;2023-02-01T11:05:45;5.98;92.74
74081;SHT31;62438;52.228;6.864;2023-02-01T11:07:48;5.89;93.15
74081;SHT31;62438;52.228;6.864;2023-02-01T11:09:51;5.88;93.12
74081;SHT31;62438;52.228;6.864;2023-02-01T11:11:57;5.80;93.75
74081;SHT31;62438;52.228;6.864;2023-02-01T11:14:00;5.78;94.18
74081;SHT31;62438;52.228;6.864;2023-02-01T11:16:02;5.80;93.45
74081;SHT31;62438;52.228;6.864;2023-02-01T11:18:19;5.82;92.83
74081;SHT31;62438;52.228;6.864;2023-02-01T11:20:37;5.79;93.37
74081;SHT31;62438;52.228;6.864;2023-02-01T11:22:48;5.73;93.90
74081;SHT31;62438;52.228;6.864;2023-02-01T11:24:49;5.75;94.16
74081;SHT31;62438;52.228;6.864;2023-02-01T11:26:50;5.73;94.36
74081;SHT31;62438;52.228;6.864;2023-02-01T11:28:57;5.72;94.76
74081;SHT31;62438;52.228;6.864;2023-02-01T11:31:00;5.72;94.76
74081;SHT31;62438;52.228;6.864;2023-02-01T11:33:03;5.68;95.44
74081;SHT31;62438;52.228;6.864;2023-02-01T11:35:06;5.68;95.39
74081;SHT31;62438;52.228;6.864;2023-02-01T11:37:36;5.70;95.26
74081;SHT31;62438;52.228;6.864;2023-02-01T11:39:36;5.75;94.65
74081;SHT31;62438;52.228;6.864;2023-02-01T11:41:54;5.75;94.81
74081;SHT31;62438;52.228;6.864;2023-02-01T11:44:01;5.75;94.81
74081;SHT31;62438;52.228;6.864;2023-02-01T11:46:17;5.75;95.49
74081;SHT31;62438;52.228;6.864;2023-02-01T11:48:24;5.75;95.24
74081;SHT31;62438;52.228;6.864;2023-02-01T11:50:30;5.79;95.64
74081;SHT31;62438;52.228;6.864;2023-02-01T11:57:12;5.96;93.91
74081;SHT31;62438;52.228;6.864;2023-02-01T12:20:56;6.19;94.86
74081;SHT31;62438;52.228;6.864;2023-02-01T12:37:42;6.54;91.57
74081;SHT31;62438;52.228;6.864;2023-02-01T12:42:08;6.57;91.19
74081;SHT31;62438;52.228;6.864;2023-02-01T12:44:17;6.59;90.90
74081;SHT31;62438;52.228;6.864;2023-02-01T12:46:33;6.59;91.32
74081;SHT31;62438;52.228;6.864;2023-02-01T12:51:06;6.61;91.32
74081;SHT31;62438;52.228;6.864;2023-02-01T12:55:36;6.71;91.58
74081;SHT31;62438;52.228;6.864;2023-02-01T12:57:42;6.74;91.58
74081;SHT31;62438;52.228;6.864;2023-02-01T13:02:33;6.93;89.88
74081;SHT31;62438;52.228;6.864;2023-02-01T13:06:47;6.91;90.39
74081;SHT31;62438;52.228;6.864;2023-02-01T13:08:53;6.88;90.50
74081;SHT31;62438;52.228;6.864;2023-02-01T13:11:03;6.89;89.55
74081;SHT31;62438;52.228;6.864;2023-02-01T13:13:14;6.92;89.72
74081;SHT31;62438;52.228;6.864;2023-02-01T13:15:29;6.95;89.52
74081;SHT31;62438;52.228;6.864;2023-02-01T13:17:32;7.00;89.44
74081;SHT31;62438;52.228;6.864;2023-02-01T13:21:53;7.12;89.57
74081;SHT31;62438;52.228;6.864;2023-02-01T13:23:55;7.16;88.43
74081;SHT31;62438;52.228;6.864;2023-02-01T13:25:56;7.13;90.28
74081;SHT31;62438;52.228;6.864;2023-02-01T13:28:02;7.20;89.42
74081;SHT31;62438;52.228;6.864;2023-02-01T13:33:09;7.22;88.94
74081;SHT31;62438;52.228;6.864;2023-02-01T13:37:44;7.15;89.45
74081;SHT31;62438;52.228;6.864;2023-02-01T13:39:56;7.13;89.14
74081;SHT31;62438;52.228;6.864;2023-02-01T13:42:27;7.07;90.33
74081;SHT31;62438;52.228;6.864;2023-02-01T13:44:37;7.07;88.96
74081;SHT31;62438;52.228;6.864;2023-02-01T13:46:44;7.02;90.25
74081;SHT31;62438;52.228;6.864;2023-02-01T13:48:56;7.07;90.05
74081;SHT31;62438;52.228;6.864;2023-02-01T13:50:59;7.17;89.47
74081;SHT31;62438;52.228;6.864;2023-02-01T13:53:03;7.20;88.89
74081;SHT31;62438;52.228;6.864;2023-02-01T13:59:52;7.12;90.10
74081;SHT31;62438;52.228;6.864;2023-02-01T14:01:55;7.13;90.70
74081;SHT31;62438;52.228;6.864;2023-02-01T14:05:59;7.06;91.10
74081;SHT31;62438;52.228;6.864;2023-02-01T14:12:48;7.00;92.11
74081;SHT31;62438;52.228;6.864;2023-02-01T14:14:49;6.89;92.21
74081;SHT31;62438;52.228;6.864;2023-02-01T14:19:00;6.88;92.07
74081;SHT31;62438;52.228;6.864;2023-02-01T14:21:22;6.88;92.25
74081;SHT31;62438;52.228;6.864;2023-02-01T14:23:26;6.88;92.14
74081;SHT31;62438;52.228;6.864;2023-02-01T14:25:31;6.92;92.66
74081;SHT31;62438;52.228;6.864;2023-02-01T14:27:35;6.93;91.97
74081;SHT31;62438;52.228;6.864;2023-02-01T14:29:41;6.95;93.23
74081;SHT31;62438;52.228;6.864;2023-02-01T14:34:13;6.98;93.02
74081;SHT31;62438;52.228;6.864;2023-02-01T14:36:14;6.92;93.23
74081;SHT31;62438;52.228;6.864;2023-02-01T14:38:15;6.95;93.29
74081;SHT31;62438;52.228;6.864;2023-02-01T14:40:25;6.93;92.71
74081;SHT31;62438;52.228;6.864;2023-02-01T14:44:41;7.12;92.48
74081;SHT31;62438;52.228;6.864;2023-02-01T14:49:19;7.20;91.31
74081;SHT31;62438;52.228;6.864;2023-02-01T14:51:20;7.15;92.63
74081;SHT31;62438;52.228;6.864;2023-02-01T14:53:33;7.22;91.07
74081;SHT31;62438;52.228;6.864;2023-02-01T14:55:50;7.28;90.83
74081;SHT31;62438;52.228;6.864;2023-02-01T14:57:54;7.33;90.66
74081;SHT31;62438;52.228;6.864;2023-02-01T15:00:26;7.31;90.66
74081;SHT31;62438;52.228;6.864;2023-02-01T15:02:28;7.28;89.82
74081;SHT31;62438;52.228;6.864;2023-02-01T15:04:41;7.33;89.38
74081;SHT31;62438;52.228;6.864;2023-02-01T15:08:45;7.28;89.08
74081;SHT31;62438;52.228;6.864;2023-02-01T15:10:47;7.30;88.98
74081;SHT31;62438;52.228;6.864;2023-02-01T15:12:49;7.26;89.50
74081;SHT31;62438;52.228;6.864;2023-02-01T15:17:27;7.36;88.12
74081;SHT31;62438;52.228;6.864;2023-02-01T15:19:33;7.38;88.36
74081;SHT31;62438;52.228;6.864;2023-02-01T15:21:43;7.47;88.48
74081;SHT31;62438;52.228;6.864;2023-02-01T15:23:44;7.44;88.08
74081;SHT31;62438;52.228;6.864;2023-02-01T15:25:48;7.40;88.85
74081;SHT31;62438;52.228;6.864;2023-02-01T15:27:49;7.36;88.68